Time;durP1;ratioP1;P1;durP2;ratioP2;P2;SDS_P1;SDS_P2;PMS_P1;PMS_P2;Temp;Humidity;BMP_temperature;BMP_pressure;BME280_temperature;BME280_humidity;BME280_pressure;Samples;Min_cycle;Max_cycle;Signal;HPM_P1;HPM_P2
2021/05/02 00:01:49;;;;;;;17.15;10.60;;;9.40;49.30;;;;;;5060939;28;20036;-87
2021/05/02 00:04:15;;;;;;;21.58;9.65;;;9.40;49.40;;;;;;5063169;28;20036;-87
2021/05/02 00:06:41;;;;;;;26.08;10.00;;;9.30;49.20;;;;;;5062979;28;20029;-85
2021/05/02 00:09:08;;;;;;;18.85;10.88;;;9.30;49.50;;;;;;5071368;28;20028;-86
2021/05/02 00:11:34;;;;;;;;;;;9.30;49.70;;;;;;5074393;28;20095;-86
2021/05/02 00:14:02;;;;;;;14.85;10.15;;;9.30;49.70;;;;;;5060580;28;19909;-86
2021/05/02 00:16:28;;;;;;;20.33;10.80;;;9.20;50.10;;;;;;5057288;28;20375;-87
2021/05/02 00:18:54;;;;;;;16.10;9.43;;;9.20;49.90;;;;;;5049290;28;20482;-86
2021/05/02 00:21:23;;;;;;;18.42;9.55;;;9.20;50.10;;;;;;5062307;28;20112;-87
2021/05/02 00:23:49;;;;;;;18.48;10.55;;;9.20;50.30;;;;;;5064462;28;20067;-88
2021/05/02 00:26:16;;;;;;;16.05;10.10;;;9.20;50.30;;;;;;5061074;28;20071;-86
2021/05/02 00:28:50;;;;;;;17.98;9.95;;;9.20;50.10;;;;;;5059373;28;20040;-84
2021/05/02 00:31:18;;;;;;;20.92;10.68;;;9.20;49.90;;;;;;5042162;28;20029;-85
2021/05/02 00:33:45;;;;;;;15.75;10.27;;;9.10;50.00;;;;;;5054487;28;20099;-86
2021/05/02 00:36:12;;;;;;;14.82;9.80;;;9.10;50.00;;;;;;5056096;28;20478;-87
2021/05/02 00:38:39;;;;;;;14.43;9.73;;;9.10;51.10;;;;;;5056359;28;20052;-86
2021/05/02 00:41:11;;;;;;;16.90;8.82;;;9.10;50.40;;;;;;5056232;28;20040;-86
2021/05/02 00:43:55;;;;;;;16.83;9.32;;;9.10;50.20;;;;;;5056795;28;20534;-87
2021/05/02 00:46:38;;;;;;;17.10;10.43;;;9.10;50.10;;;;;;5045668;28;20021;-87
2021/05/02 00:49:31;;;;;;;17.63;9.85;;;9.00;50.20;;;;;;5037730;28;20028;-84
2021/05/02 00:52:03;;;;;;;14.02;9.32;;;9.00;50.30;;;;;;5055879;28;20348;-84
2021/05/02 00:54:46;;;;;;;15.90;9.48;;;9.00;50.70;;;;;;5056173;28;20041;-86
2021/05/02 00:57:26;;;;;;;17.08;9.07;;;9.00;50.50;;;;;;5056297;28;20021;-88
2021/05/02 01:00:04;;;;;;;17.23;9.98;;;8.90;50.50;;;;;;5057061;28;20089;-86
2021/05/02 01:02:33;;;;;;;14.20;9.13;;;8.90;50.40;;;;;;5058356;28;20033;-87
2021/05/02 01:05:03;;;;;;;17.15;9.90;;;8.90;50.90;;;;;;5058128;28;20071;-86
2021/05/02 01:07:38;;;;;;;15.15;8.20;;;8.90;50.80;;;;;;5057288;28;20021;-86
2021/05/02 01:10:15;;;;;;;10.18;7.32;;;8.90;50.60;;;;;;5057143;28;20017;-89
2021/05/02 01:12:44;;;;;;;;;;;8.80;50.10;;;;;;5040075;28;20080;-87
2021/05/02 01:15:13;;;;;;;13.18;8.73;;;8.80;50.20;;;;;;5056264;28;19938;-88
2021/05/02 01:17:42;;;;;;;15.15;8.70;;;8.80;50.50;;;;;;5056129;28;20155;-86
2021/05/02 01:20:10;;;;;;;13.70;8.52;;;8.80;50.70;;;;;;5038663;28;20163;-87
2021/05/02 01:22:38;;;;;;;14.35;7.95;;;8.80;50.50;;;;;;5060514;28;20060;-85
2021/05/02 01:25:04;;;;;;;12.35;8.60;;;8.90;50.50;;;;;;5065321;28;20021;-84
2021/05/02 01:27:31;;;;;;;16.35;8.32;;;8.80;50.60;;;;;;5061312;28;20448;-87
2021/05/02 01:30:00;;;;;;;11.65;7.97;;;8.90;50.50;;;;;;5060250;28;20040;-87
2021/05/02 01:32:27;;;;;;;10.82;7.55;;;8.90;50.60;;;;;;5045125;28;20029;-87
2021/05/02 01:34:54;;;;;;;11.65;8.93;;;8.90;50.40;;;;;;5036601;28;20021;-86
2021/05/02 01:37:20;;;;;;;11.57;8.13;;;8.90;50.50;;;;;;5058040;28;20104;-87
2021/05/02 01:39:47;;;;;;;18.70;9.35;;;8.90;50.50;;;;;;5039682;28;20032;-86
2021/05/02 01:42:13;;;;;;;12.10;7.40;;;8.90;50.60;;;;;;5059457;28;20051;-84
2021/05/02 01:44:39;;;;;;;10.32;7.63;;;8.90;50.50;;;;;;5059854;28;20096;-86
2021/05/02 01:47:09;;;;;;;11.23;8.00;;;8.90;50.80;;;;;;5057248;28;20382;-87
2021/05/02 01:49:42;;;;;;;12.73;7.65;;;9.00;51.20;;;;;;5061719;28;20028;-86
2021/05/02 01:52:08;;;;;;;11.23;8.07;;;9.00;50.70;;;;;;5039350;28;20079;-87
2021/05/02 01:54:36;;;;;;;10.63;6.28;;;9.00;50.30;;;;;;5037834;28;20021;-85
2021/05/02 01:57:03;;;;;;;12.00;6.88;;;9.00;50.10;;;;;;5055064;28;20023;-86
2021/05/02 01:59:29;;;;;;;10.85;6.32;;;8.90;50.40;;;;;;5055298;28;20028;-87
2021/05/02 02:01:56;;;;;;;10.13;7.63;;;8.90;50.30;;;;;;5037530;28;20494;-86
2021/05/02 02:04:29;;;;;;;10.40;7.22;;;8.90;50.50;;;;;;5057238;28;20018;-85
2021/05/02 02:06:57;;;;;;;9.85;6.68;;;8.90;50.90;;;;;;5046420;28;20021;-85
2021/05/02 02:09:22;;;;;;;;;;;9.00;50.70;;;;;;5059786;28;20021;-85
2021/05/02 02:11:52;;;;;;;14.98;8.18;;;9.00;50.60;;;;;;5041140;28;20422;-86
2021/05/02 02:14:18;;;;;;;15.73;7.40;;;9.00;51.10;;;;;;5037852;28;20029;-87
2021/05/02 02:16:46;;;;;;;9.13;6.40;;;9.00;50.90;;;;;;5055827;28;20032;-87
2021/05/02 02:19:11;;;;;;;9.38;6.95;;;9.00;50.90;;;;;;5058844;28;20064;-86
2021/05/02 02:21:38;;;;;;;13.10;7.05;;;9.00;50.80;;;;;;5068464;28;20048;-87
2021/05/02 02:24:05;;;;;;;11.93;6.53;;;9.00;50.90;;;;;;5059241;28;20074;-88
2021/05/02 02:26:53;;;;;;;17.27;7.78;;;9.00;51.10;;;;;;5039780;28;20021;-86
2021/05/02 02:29:22;;;;;;;11.73;6.70;;;8.90;51.20;;;;;;5045405;28;20049;-87
2021/05/02 02:31:50;;;;;;;10.35;6.38;;;8.90;51.30;;;;;;5044784;28;20024;-87
2021/05/02 02:34:18;;;;;;;10.75;6.80;;;8.90;51.20;;;;;;5057095;28;20070;-86
2021/05/02 02:36:44;;;;;;;11.55;6.22;;;9.00;51.10;;;;;;5055900;28;20547;-88
2021/05/02 02:39:11;;;;;;;8.50;5.55;;;9.00;51.20;;;;;;5037599;28;20037;-87
2021/05/02 02:41:40;;;;;;;8.27;5.07;;;9.00;51.00;;;;;;5055336;28;20515;-86
2021/05/02 02:44:08;;;;;;;9.50;5.85;;;9.00;50.50;;;;;;5056686;28;20428;-86
2021/05/02 02:46:40;;;;;;;11.00;5.78;;;9.10;50.40;;;;;;5054072;28;20165;-87
2021/05/02 02:49:10;;;;;;;9.50;5.68;;;9.10;50.20;;;;;;5028591;28;20066;-87
2021/05/02 02:51:37;;;;;;;9.95;5.55;;;9.10;50.00;;;;;;5051440;28;20472;-88
2021/05/02 02:54:06;;;;;;;11.80;5.85;;;9.20;50.20;;;;;;5054165;28;20013;-86
2021/05/02 02:56:34;;;;;;;13.68;5.70;;;9.20;50.20;;;;;;5035412;28;20040;-87
2021/05/02 02:59:18;;;;;;;7.95;5.93;;;9.20;50.00;;;;;;5055578;28;20021;-87
2021/05/02 03:01:47;;;;;;;14.98;6.10;;;9.30;50.10;;;;;;5054609;28;20025;-85
2021/05/02 03:04:17;;;;;;;11.05;6.38;;;9.30;50.20;;;;;;5054138;28;20078;-86
2021/05/02 03:06:43;;;;;;;11.07;6.68;;;9.40;50.00;;;;;;5054442;28;20017;-88
2021/05/02 03:09:14;;;;;;;10.40;5.80;;;9.40;50.00;;;;;;5037050;28;20031;-87
2021/05/02 03:11:41;;;;;;;12.27;6.35;;;9.40;49.70;;;;;;5036976;28;20021;-89
2021/05/02 03:14:07;;;;;;;7.85;4.78;;;9.50;49.60;;;;;;5057840;28;20025;-87
2021/05/02 03:16:35;;;;;;;19.67;5.88;;;9.60;49.30;;;;;;5039585;28;20024;-87
2021/05/02 03:19:12;;;;;;;13.90;5.63;;;9.60;49.00;;;;;;5042095;28;20033;-87
2021/05/02 03:22:09;;;;;;;12.02;5.32;;;9.60;48.60;;;;;;5052000;28;20037;-86
2021/05/02 03:24:40;;;;;;;12.65;6.10;;;9.70;48.60;;;;;;5072076;28;20029;-87
2021/05/02 03:27:25;;;;;;;6.47;4.30;;;9.90;48.60;;;;;;5059922;28;20031;-89
2021/05/02 03:29:51;;;;;;;13.55;5.75;;;10.00;48.30;;;;;;5041196;28;20049;-88
2021/05/02 03:32:22;;;;;;;10.35;5.68;;;10.00;48.00;;;;;;5041259;28;20021;-87
2021/05/02 03:34:50;;;;;;;10.95;5.00;;;10.00;48.20;;;;;;5040942;28;20029;-89
2021/05/02 03:37:23;;;;;;;7.55;5.43;;;10.10;47.80;;;;;;5065027;28;20024;-87
2021/05/02 03:39:50;;;;;;;11.40;5.13;;;10.00;47.90;;;;;;5065246;28;20025;-89
2021/05/02 03:42:17;;;;;;;10.10;4.15;;;10.00;48.00;;;;;;5056077;28;20045;-86
2021/05/02 03:44:43;;;;;;;8.43;5.20;;;9.90;47.60;;;;;;5048021;28;20053;-87
2021/05/02 03:47:10;;;;;;;7.85;4.50;;;9.80;47.70;;;;;;5048726;28;20026;-86
2021/05/02 03:49:36;;;;;;;10.57;5.65;;;9.80;48.10;;;;;;5063681;28;20036;-87
2021/05/02 03:52:03;;;;;;;10.70;5.00;;;9.80;48.30;;;;;;5062394;28;20028;-88
2021/05/02 03:54:29;;;;;;;9.88;5.10;;;9.90;48.20;;;;;;5062213;28;20029;-87
2021/05/02 03:56:55;;;;;;;9.07;4.90;;;10.10;48.20;;;;;;5049890;28;20017;-86
2021/05/02 03:59:23;;;;;;;9.77;5.38;;;10.20;47.70;;;;;;5060928;28;20114;-87
2021/05/02 04:01:52;;;;;;;10.00;5.05;;;10.30;47.30;;;;;;5044376;28;20490;-89
2021/05/02 04:04:20;;;;;;;8.43;4.75;;;10.30;46.80;;;;;;5062158;28;20351;-86
2021/05/02 04:06:46;;;;;;;11.30;5.20;;;10.40;47.10;;;;;;5060982;28;20076;-87
2021/05/02 04:09:14;;;;;;;8.40;5.05;;;10.60;47.00;;;;;;5062627;28;20047;-86
2021/05/02 04:11:41;;;;;;;6.25;4.47;;;10.90;46.40;;;;;;5047715;28;20032;-85
2021/05/02 04:14:09;;;;;;;5.50;3.83;;;11.00;45.30;;;;;;5069651;28;20031;-87
2021/05/02 04:16:35;;;;;;;9.90;5.57;;;10.80;45.10;;;;;;5074463;28;20043;-84
2021/05/02 04:19:02;;;;;;;6.28;4.20;;;10.90;45.50;;;;;;5059354;28;20033;-88
2021/05/02 04:21:29;;;;;;;9.45;4.80;;;11.10;45.40;;;;;;5062086;28;20036;-89
2021/05/02 04:23:54;;;;;;;6.45;4.93;;;11.20;45.20;;;;;;5041402;28;20056;-87
2021/05/02 04:26:21;;;;;;;8.77;4.70;;;11.10;45.10;;;;;;5059031;28;20031;-86
2021/05/02 04:28:47;;;;;;;5.55;4.22;;;11.20;45.20;;;;;;5042914;28;20073;-85
2021/05/02 04:31:13;;;;;;;10.57;4.38;;;11.10;44.90;;;;;;5059573;28;20029;-86
2021/05/02 04:33:39;;;;;;;8.57;3.92;;;11.10;45.10;;;;;;5059032;28;20025;-86
2021/05/02 04:36:05;;;;;;;4.50;3.67;;;11.10;44.50;;;;;;5058665;28;20016;-87
2021/05/02 04:38:31;;;;;;;7.15;3.80;;;11.00;44.00;;;;;;5056192;28;20119;-86
2021/05/02 04:40:58;;;;;;;7.57;4.68;;;11.00;44.60;;;;;;5039054;28;20541;-86
2021/05/02 04:43:25;;;;;;;9.75;3.92;;;11.30;44.80;;;;;;5055843;28;20067;-85
2021/05/02 04:45:51;;;;;;;5.55;3.97;;;11.70;44.20;;;;;;5056604;28;20043;-86
2021/05/02 04:48:23;;;;;;;7.00;3.50;;;11.80;43.40;;;;;;5056264;28;20024;-86
2021/05/02 04:50:49;;;;;;;6.30;4.15;;;11.90;42.60;;;;;;5038502;28;20024;-85
2021/05/02 04:53:15;;;;;;;8.52;3.63;;;12.10;42.50;;;;;;5056082;28;20047;-87
2021/05/02 04:55:40;;;;;;;8.05;4.63;;;12.30;41.80;;;;;;5054387;28;20059;-86
2021/05/02 04:58:08;;;;;;;5.70;3.83;;;12.20;41.80;;;;;;5058374;28;20017;-85
2021/05/02 05:00:34;;;;;;;;;;;12.30;41.20;;;;;;5057026;28;20068;-87
2021/05/02 05:03:01;;;;;;;9.50;4.57;;;12.30;41.70;;;;;;5048911;28;19909;-86
2021/05/02 05:05:27;;;;;;;7.38;5.03;;;12.20;41.70;;;;;;5041079;28;20028;-86
2021/05/02 05:07:52;;;;;;;8.52;4.65;;;12.30;41.60;;;;;;5062437;28;20080;-88
2021/05/02 05:10:18;;;;;;;7.07;4.63;;;12.60;41.60;;;;;;5064418;28;20049;-87
2021/05/02 05:12:44;;;;;;;10.30;5.82;;;12.90;40.80;;;;;;5066223;28;20023;-87
2021/05/02 05:15:11;;;;;;;10.45;5.80;;;12.80;40.50;;;;;;5049075;28;20021;-88
2021/05/02 05:17:37;;;;;;;6.22;4.88;;;12.70;41.00;;;;;;5039031;28;20095;-88
2021/05/02 05:20:04;;;;;;;10.35;5.80;;;12.60;41.00;;;;;;5059628;28;20028;-88
2021/05/02 05:22:30;;;;;;;7.68;5.47;;;13.00;41.10;;;;;;5063711;28;20051;-83
2021/05/02 05:24:57;;;;;;;9.18;6.20;;;13.40;40.70;;;;;;5064506;28;20029;-87
2021/05/02 05:27:26;;;;;;;9.25;4.50;;;13.50;40.40;;;;;;5057131;28;20028;-86
2021/05/02 05:29:52;;;;;;;10.38;4.85;;;13.70;39.70;;;;;;5055869;28;20502;-85
2021/05/02 05:32:18;;;;;;;11.57;5.20;;;13.70;39.80;;;;;;5059830;28;20029;-86
2021/05/02 05:34:44;;;;;;;5.93;4.80;;;13.80;39.10;;;;;;5058295;28;20040;-89
2021/05/02 05:37:09;;;;;;;7.43;4.75;;;13.80;38.60;;;;;;5059326;28;20479;-88
2021/05/02 05:39:35;;;;;;;7.10;4.95;;;13.60;39.40;;;;;;5050318;28;20025;-87
2021/05/02 05:42:01;;;;;;;7.25;4.55;;;13.80;39.70;;;;;;5067948;28;20029;-89
2021/05/02 05:44:27;;;;;;;9.30;4.75;;;14.40;38.50;;;;;;5060014;28;20051;-86
2021/05/02 05:46:53;;;;;;;6.45;4.60;;;14.80;37.90;;;;;;5060439;28;20021;-87
2021/05/02 05:49:19;;;;;;;9.40;4.28;;;15.50;37.20;;;;;;5039047;28;20112;-88
2021/05/02 05:51:52;;;;;;;6.20;4.38;;;16.00;36.20;;;;;;5057077;28;20013;-89
2021/05/02 05:54:18;;;;;;;10.27;4.47;;;16.20;35.60;;;;;;5056333;28;20021;-89
2021/05/02 05:56:44;;;;;;;8.02;4.32;;;16.00;35.40;;;;;;5054691;28;20025;-86
2021/05/02 05:59:10;;;;;;;6.50;3.75;;;15.40;36.50;;;;;;5037840;28;20017;-88
2021/05/02 06:01:36;;;;;;;7.72;4.30;;;15.30;36.60;;;;;;5056783;28;20032;-88
2021/05/02 06:04:02;;;;;;;6.63;4.53;;;15.60;36.90;;;;;;5056252;28;20075;-86
2021/05/02 06:06:32;;;;;;;8.10;4.07;;;15.90;36.50;;;;;;5046764;28;20028;-86
2021/05/02 06:08:59;;;;;;;6.05;4.55;;;16.30;35.90;;;;;;5042230;28;20469;-86
2021/05/02 06:11:27;;;;;;;7.80;4.88;;;16.50;35.40;;;;;;5049565;28;20088;-87
2021/05/02 06:13:53;;;;;;;6.57;4.10;;;16.20;35.10;;;;;;5064067;28;20029;-86
2021/05/02 06:16:19;;;;;;;7.18;3.55;;;16.00;35.70;;;;;;5050518;28;20084;-86
2021/05/02 06:18:47;;;;;;;4.53;3.67;;;16.00;36.00;;;;;;5049594;28;20102;-89
2021/05/02 06:21:13;;;;;;;7.15;3.97;;;16.30;36.60;;;;;;5070460;28;20047;-87
2021/05/02 06:23:39;;;;;;;4.53;3.47;;;16.50;35.40;;;;;;5061728;28;20021;-89
2021/05/02 06:26:06;;;;;;;7.68;3.10;;;16.20;35.80;;;;;;5055862;28;20096;-88
2021/05/02 06:28:32;;;;;;;4.97;3.00;;;15.80;36.30;;;;;;5038963;28;20585;-87
2021/05/02 06:30:58;;;;;;;7.40;3.50;;;15.70;36.70;;;;;;5054291;28;20061;-86
2021/05/02 06:33:25;;;;;;;3.83;3.08;;;15.80;36.70;;;;;;5057311;28;20045;-87
2021/05/02 06:35:50;;;;;;;6.95;2.75;;;16.00;37.00;;;;;;5060713;28;20029;-90
2021/05/02 06:38:18;;;;;;;3.50;2.58;;;16.20;36.20;;;;;;5057043;28;20475;-87
2021/05/02 06:44:06;;;;;;;3.85;2.90;;;16.00;36.60;;;;;;5055370;28;20032;-90
2021/05/02 06:46:33;;;;;;;7.50;2.75;;;16.20;36.70;;;;;;5056372;28;20025;-89
2021/05/02 06:49:05;;;;;;;4.70;2.92;;;16.30;36.70;;;;;;5056156;28;20021;-88
2021/05/02 06:51:32;;;;;;;4.63;3.35;;;16.60;37.50;;;;;;5054926;28;20035;-91
2021/05/02 06:53:58;;;;;;;5.05;3.03;;;16.90;36.00;;;;;;5054854;28;20078;-88
2021/05/02 06:56:25;;;;;;;5.65;3.00;;;17.30;36.00;;;;;;5037631;28;20445;-89
2021/05/02 06:58:52;;;;;;;4.55;3.22;;;18.20;35.00;;;;;;5055278;28;20355;-85
2021/05/02 07:01:18;;;;;;;9.10;3.25;;;18.70;33.40;;;;;;5037546;28;20037;-86
2021/05/02 07:03:44;;;;;;;6.57;2.55;;;18.90;33.50;;;;;;5056969;28;20017;-88
2021/05/02 07:06:13;;;;;;;5.18;2.90;;;19.50;32.80;;;;;;5038588;28;20021;-85
2021/05/02 07:08:39;;;;;;;9.05;2.80;;;19.90;32.40;;;;;;5055691;28;20036;-86
2021/05/02 07:11:06;;;;;;;3.92;2.53;;;20.20;32.00;;;;;;5051139;28;20020;-88
2021/05/02 07:13:31;;;;;;;4.07;2.58;;;20.20;31.20;;;;;;5053719;28;20097;-87
2021/05/02 07:16:01;;;;;;;4.38;2.97;;;19.60;30.40;;;;;;5053720;28;20048;-85
2021/05/02 07:18:32;;;;;;;4.63;2.78;;;19.20;31.40;;;;;;5053929;28;20505;-86
2021/05/02 07:20:58;;;;;;;4.97;2.97;;;19.00;32.50;;;;;;5035028;28;20439;-85
2021/05/02 07:23:24;;;;;;;4.05;2.75;;;19.40;32.10;;;;;;5054108;28;20017;-83
2021/05/02 07:25:49;;;;;;;2.80;1.83;;;19.40;32.00;;;;;;5056059;28;20482;-79
2021/05/02 07:28:15;;;;;;;5.47;2.67;;;19.70;31.00;;;;;;5050092;28;20041;-90
2021/05/02 07:30:41;;;;;;;3.53;2.10;;;19.80;31.10;;;;;;5057362;28;20021;-88
2021/05/02 07:33:08;;;;;;;8.85;5.30;;;19.80;30.30;;;;;;5036289;28;20486;-90
2021/05/02 07:35:34;;;;;;;4.70;2.63;;;19.90;30.40;;;;;;5052214;28;20025;-84
2021/05/02 07:38:02;;;;;;;3.33;2.15;;;20.00;30.10;;;;;;5052870;28;20021;-86
2021/05/02 07:40:28;;;;;;;3.63;2.60;;;20.10;29.60;;;;;;5053342;28;20028;-84
2021/05/02 07:42:54;;;;;;;3.10;2.13;;;20.30;30.00;;;;;;5063463;28;20081;-87
2021/05/02 07:45:20;;;;;;;4.20;2.55;;;20.60;29.10;;;;;;5057733;28;20045;-88
2021/05/02 07:47:46;;;;;;;3.88;2.60;;;20.80;28.80;;;;;;5056076;28;20053;-90
2021/05/02 07:50:13;;;;;;;6.22;2.40;;;21.00;29.20;;;;;;5047661;28;20028;-87
2021/05/02 07:52:41;;;;;;;3.67;2.15;;;20.70;27.90;;;;;;5054162;28;20049;-85
2021/05/02 07:55:08;;;;;;;4.28;2.63;;;20.50;28.40;;;;;;5054042;28;20423;-88
2021/05/02 07:57:33;;;;;;;5.20;3.22;;;20.30;27.70;;;;;;5051593;28;20026;-90
2021/05/02 08:00:00;;;;;;;4.47;2.22;;;20.30;28.30;;;;;;5052122;28;20068;-94
2021/05/02 08:02:27;;;;;;;4.60;2.35;;;21.00;28.10;;;;;;5043595;28;20090;-94
2021/05/02 08:04:53;;;;;;;3.65;2.40;;;20.40;28.80;;;;;;5058282;28;20025;-92
2021/05/02 08:07:22;;;;;;;3.45;2.35;;;20.50;29.10;;;;;;5041634;28;20129;-89
2021/05/02 08:09:47;;;;;;;5.85;2.70;;;20.40;29.10;;;;;;5050250;28;20047;-88
2021/05/02 08:12:13;;;;;;;4.47;2.20;;;20.30;29.80;;;;;;5057858;28;20057;-88
2021/05/02 08:14:39;;;;;;;5.22;2.55;;;20.40;29.50;;;;;;5073398;28;20017;-89
2021/05/02 08:17:05;;;;;;;2.80;2.38;;;20.00;28.70;;;;;;5062865;28;20041;-90
2021/05/02 08:19:32;;;;;;;7.00;2.90;;;19.10;28.90;;;;;;5072377;28;20021;-89
2021/05/02 08:22:02;;;;;;;3.90;2.57;;;18.60;30.00;;;;;;5060686;28;20084;-88
2021/05/02 08:24:27;;;;;;;4.88;2.33;;;18.60;30.00;;;;;;5073711;28;20088;-91
2021/05/02 08:26:53;;;;;;;4.50;2.95;;;18.50;30.20;;;;;;5077653;28;20367;-82
2021/05/02 08:29:19;;;;;;;6.82;2.60;;;18.40;30.80;;;;;;5065998;28;20057;-88
2021/05/02 08:31:45;;;;;;;4.18;2.38;;;18.50;31.10;;;;;;5060755;28;20017;-86
2021/05/02 08:34:11;;;;;;;3.30;2.30;;;18.60;30.70;;;;;;5058610;28;20410;-88
2021/05/02 08:36:37;;;;;;;3.28;2.53;;;18.70;30.50;;;;;;5061497;28;20028;-88
2021/05/02 08:39:04;;;;;;;4.65;3.00;;;18.80;29.90;;;;;;5064053;28;20109;-87
2021/05/02 08:41:30;;;;;;;5.05;3.03;;;18.70;30.00;;;;;;5066892;28;20035;-87
2021/05/02 08:43:57;;;;;;;3.40;2.38;;;18.50;30.40;;;;;;5057918;28;20009;-89
2021/05/02 08:46:24;;;;;;;2.80;2.27;;;17.90;30.40;;;;;;5058605;28;20017;-90
2021/05/02 08:48:50;;;;;;;5.07;3.03;;;17.70;31.00;;;;;;5042664;28;20148;-88
2021/05/02 08:51:17;;;;;;;3.10;2.78;;;17.20;31.80;;;;;;5059214;28;20033;-89
2021/05/02 08:53:43;;;;;;;6.03;3.50;;;17.10;32.40;;;;;;5057083;28;20017;-88
2021/05/02 08:56:09;;;;;;;4.32;3.00;;;17.50;32.40;;;;;;5057375;28;20071;-90
2021/05/02 08:58:35;;;;;;;6.47;3.20;;;17.80;31.50;;;;;;5039388;28;20391;-89
2021/05/02 09:01:03;;;;;;;3.80;2.20;;;18.10;31.50;;;;;;5048136;28;20037;-87
2021/05/02 09:03:47;;;;;;;3.42;2.60;;;18.40;31.50;;;;;;5040375;28;20484;-89
2021/05/02 09:06:35;;;;;;;6.15;2.55;;;18.30;31.50;;;;;;5059135;28;20025;-90
2021/05/02 09:09:05;;;;;;;2.90;2.10;;;18.30;31.70;;;;;;5060942;28;20021;-89
2021/05/02 09:11:35;;;;;;;3.35;2.25;;;18.00;31.30;;;;;;5045514;28;20029;-90
2021/05/02 09:14:03;;;;;;;4.03;2.22;;;17.80;31.70;;;;;;5057944;28;20134;-90
2021/05/02 09:16:50;;;;;;;5.13;2.88;;;17.40;32.50;;;;;;5043008;28;20033;-89
2021/05/02 09:19:18;;;;;;;13.48;3.33;;;17.30;32.60;;;;;;5039681;28;20032;-88
2021/05/02 09:21:44;;;;;;;2.47;1.80;;;17.50;33.70;;;;;;5040252;28;20055;-90
2021/05/02 09:24:33;;;;;;;4.85;2.67;;;17.70;32.50;;;;;;5053709;28;20025;-88
2021/05/02 09:27:07;;;;;;;5.07;2.60;;;17.60;32.40;;;;;;5036201;28;20143;-89
2021/05/02 09:29:35;;;;;;;3.15;2.28;;;17.20;32.60;;;;;;5052781;28;20383;-88
2021/05/02 09:32:01;;;;;;;5.85;3.17;;;17.00;34.10;;;;;;5024449;28;20021;-91
2021/05/02 09:34:28;;;;;;;4.00;2.90;;;17.10;33.60;;;;;;5038958;28;20025;-89
2021/05/02 09:37:04;;;;;;;4.57;2.75;;;17.10;33.70;;;;;;5056615;28;20474;-86
2021/05/02 09:39:49;;;;;;;4.77;2.77;;;17.20;33.50;;;;;;5060320;28;20033;-90
2021/05/02 09:42:23;;;;;;;5.63;3.00;;;17.10;33.80;;;;;;5047541;28;20029;-88
2021/05/02 09:44:57;;;;;;;5.53;2.80;;;17.10;33.90;;;;;;5046963;28;20056;-86
2021/05/02 09:47:36;;;;;;;7.65;3.55;;;17.10;33.50;;;;;;5045259;28;20033;-88
2021/05/02 09:50:17;;;;;;;4.07;3.00;;;16.90;33.60;;;;;;5055715;28;20033;-87
2021/05/02 09:53:01;;;;;;;4.50;2.60;;;17.00;34.10;;;;;;5055702;28;20021;-88
2021/05/02 09:55:39;;;;;;;2.80;2.60;;;17.10;34.20;;;;;;5023746;28;20033;-89
2021/05/02 09:58:11;;;;;;;4.43;2.90;;;17.20;33.80;;;;;;5056276;28;20116;-90
2021/05/02 10:00:48;;;;;;;5.13;3.08;;;17.00;34.40;;;;;;5022608;28;20017;-90
2021/05/02 10:03:23;;;;;;;5.78;2.90;;;17.10;34.10;;;;;;5056059;28;20061;-89
2021/05/02 10:06:32;;;;;;;3.97;2.42;;;17.00;33.70;;;;;;5042370;28;20470;-88
2021/05/02 10:09:00;;;;;;;7.65;3.33;;;17.00;34.40;;;;;;5049485;28;20505;-90
2021/05/02 10:11:26;;;;;;;4.88;3.33;;;16.70;33.80;;;;;;5057055;28;20021;-87
2021/05/02 10:13:52;;;;;;;4.05;2.53;;;16.70;34.90;;;;;;5059377;28;20359;-89
2021/05/02 10:16:18;;;;;;;4.13;3.00;;;16.70;33.80;;;;;;5058698;28;20017;-88
2021/05/02 10:18:45;;;;;;;4.78;2.83;;;16.70;34.10;;;;;;5039987;28;20021;-88
2021/05/02 10:21:11;;;;;;;4.07;2.92;;;16.80;34.20;;;;;;5062580;28;20029;-88
2021/05/02 10:23:42;;;;;;;4.65;2.50;;;16.80;33.60;;;;;;5044991;28;20059;-89
2021/05/02 10:26:09;;;;;;;5.20;2.97;;;16.80;33.60;;;;;;5048334;28;20423;-88
2021/05/02 10:28:36;;;;;;;4.55;2.70;;;16.80;33.80;;;;;;5065107;28;20116;-89
2021/05/02 10:31:10;;;;;;;6.47;3.25;;;16.90;33.80;;;;;;5059012;28;20021;-89
2021/05/02 10:33:42;;;;;;;3.80;2.70;;;16.90;33.80;;;;;;5054274;28;20107;-85
2021/05/02 10:36:10;;;;;;;5.18;3.40;;;17.00;33.20;;;;;;5058295;28;20001;-87
2021/05/02 10:38:58;;;;;;;4.28;2.95;;;17.10;33.30;;;;;;5069713;28;20471;-82
2021/05/02 10:41:36;;;;;;;5.10;3.10;;;17.10;33.30;;;;;;5052948;28;20109;-90
2021/05/02 10:44:07;;;;;;;3.17;2.65;;;16.90;33.30;;;;;;5048660;28;20032;-90
2021/05/02 10:46:50;;;;;;;5.35;2.78;;;16.80;33.40;;;;;;5038413;28;20028;-88
2021/05/02 10:49:19;;;;;;;4.75;3.22;;;16.80;33.90;;;;;;5054738;28;20013;-86
2021/05/02 10:51:53;;;;;;;5.53;3.30;;;16.60;33.60;;;;;;5055299;28;20020;-87
2021/05/02 10:54:24;;;;;;;5.07;3.10;;;16.40;34.20;;;;;;5042993;28;20378;-87
2021/05/02 10:56:51;;;;;;;6.30;3.72;;;16.30;34.90;;;;;;5048706;28;20025;-90
2021/05/02 10:59:19;;;;;;;9.70;3.80;;;16.30;34.90;;;;;;5058898;28;20077;-92
2021/05/02 11:01:46;;;;;;;7.10;4.47;;;16.30;35.40;;;;;;5058178;28;20151;-93
2021/05/02 11:04:12;;;;;;;4.97;3.50;;;16.40;35.00;;;;;;5056041;28;20533;-91
2021/05/02 11:06:38;;;;;;;6.13;2.90;;;16.50;35.40;;;;;;5032686;28;20092;-90
2021/05/02 11:09:14;;;;;;;6.40;4.43;;;16.60;34.60;;;;;;5037075;28;20098;-91
2021/05/02 11:11:49;;;;;;;8.25;4.38;;;16.90;34.60;;;;;;5040102;28;20021;-94
2021/05/02 11:14:21;;;;;;;8.05;3.63;;;17.10;34.40;;;;;;5059839;28;20013;-93
2021/05/02 11:16:56;;;;;;;4.07;3.38;;;17.00;33.60;;;;;;5053228;28;20040;-89
2021/05/02 11:19:23;;;;;;;5.18;3.85;;;16.60;33.70;;;;;;5058219;28;20498;-91
2021/05/02 11:21:50;;;;;;;7.63;3.17;;;16.30;34.20;;;;;;5041207;28;20033;-90
2021/05/02 11:24:19;;;;;;;4.25;3.53;;;16.20;34.80;;;;;;5043820;28;20043;-90
2021/05/02 11:26:56;;;;;;;6.78;3.90;;;16.60;34.80;;;;;;5061710;28;20037;-91
2021/05/02 11:29:24;;;;;;;4.40;3.83;;;16.90;34.40;;;;;;5069650;28;20056;-94
2021/05/02 11:31:50;;;;;;;9.13;3.42;;;16.70;34.50;;;;;;5054625;28;20047;-93
2021/05/02 11:34:16;;;;;;;6.15;4.65;;;16.70;34.80;;;;;;5069894;28;20379;-93
2021/05/02 11:36:43;;;;;;;5.95;4.00;;;16.50;35.10;;;;;;5072535;28;20017;-94
2021/05/02 11:39:42;;;;;;;8.30;3.80;;;16.30;35.00;;;;;;5067904;28;20068;-90
2021/05/02 11:42:09;;;;;;;9.93;4.28;;;16.10;35.60;;;;;;5038249;28;20094;-91
2021/05/02 11:44:38;;;;;;;4.72;3.72;;;15.90;36.20;;;;;;5075190;28;20060;-91
2021/05/02 11:47:12;;;;;;;4.32;3.35;;;15.90;36.40;;;;;;5080825;28;20025;-88
2021/05/02 11:49:40;;;;;;;5.80;3.72;;;15.90;36.90;;;;;;5066018;28;20148;-88
2021/05/02 11:52:06;;;;;;;4.95;3.53;;;16.10;36.90;;;;;;5051851;28;20021;-88
2021/05/02 11:54:32;;;;;;;6.93;4.60;;;16.10;36.50;;;;;;5063184;28;20071;-91
2021/05/02 11:56:58;;;;;;;8.63;4.45;;;16.10;36.70;;;;;;5061296;28;20025;-87
2021/05/02 11:59:24;;;;;;;4.82;3.88;;;16.20;36.70;;;;;;5067604;28;20104;-91
2021/05/02 12:01:51;;;;;;;7.22;4.53;;;16.20;36.60;;;;;;5062869;28;20064;-89
2021/05/02 12:04:19;;;;;;;9.40;4.30;;;16.30;37.20;;;;;;5059531;28;20019;-84
2021/05/02 12:06:46;;;;;;;8.18;3.67;;;16.10;36.90;;;;;;5038310;28;20501;-80
2021/05/02 12:09:17;;;;;;;7.78;4.03;;;16.00;36.50;;;;;;5059032;28;20075;-86
2021/05/02 12:11:44;;;;;;;5.70;3.67;;;15.90;36.90;;;;;;5061219;28;20033;-83
2021/05/02 12:14:20;;;;;;;7.03;4.28;;;15.80;37.30;;;;;;5062824;28;20017;-87
2021/05/02 12:16:55;;;;;;;7.40;4.60;;;15.90;38.00;;;;;;5050789;28;20029;-89
2021/05/02 12:19:27;;;;;;;6.60;4.43;;;16.00;37.90;;;;;;5056149;28;20025;-86
2021/05/02 12:21:53;;;;;;;7.47;4.20;;;16.10;37.50;;;;;;5044311;28;20032;-79
2021/05/02 12:24:27;;;;;;;9.43;3.95;;;16.30;38.30;;;;;;5048488;28;20025;-81
2021/05/02 12:27:07;;;;;;;6.97;4.15;;;16.30;38.00;;;;;;5056798;28;20041;-83
2021/05/02 12:29:34;;;;;;;5.18;4.20;;;16.00;39.10;;;;;;5055598;28;20513;-81
2021/05/02 12:32:04;;;;;;;4.93;3.88;;;15.50;40.20;;;;;;5055718;28;20020;-84
2021/05/02 12:34:41;;;;;;;10.00;5.15;;;15.30;41.00;;;;;;5055370;28;20056;-83
2021/05/02 12:37:18;;;;;;;11.30;5.07;;;15.30;41.60;;;;;;5037143;28;20021;-84
2021/05/02 12:39:50;;;;;;;6.72;4.50;;;15.30;41.70;;;;;;5037725;28;20029;-82
2021/05/02 12:42:27;;;;;;;7.40;4.80;;;15.40;41.50;;;;;;5055923;28;20057;-83
2021/05/02 12:44:53;;;;;;;9.07;4.65;;;15.50;41.80;;;;;;5058055;28;20132;-81
2021/05/02 12:47:21;;;;;;;8.18;4.40;;;15.60;41.70;;;;;;5062711;28;20021;-81
2021/05/02 12:50:06;;;;;;;8.90;5.13;;;15.50;41.70;;;;;;5062023;28;20017;-80
2021/05/02 12:52:40;;;;;;;8.35;4.75;;;15.40;42.00;;;;;;5057058;28;20021;-82
2021/05/02 12:55:27;;;;;;;12.32;5.25;;;15.30;42.20;;;;;;5056303;28;20029;-81
2021/05/02 12:57:57;;;;;;;6.93;3.95;;;15.40;42.10;;;;;;5063423;28;20048;-83
2021/05/02 13:00:48;;;;;;;6.82;4.55;;;15.30;41.70;;;;;;5056884;28;20043;-83
2021/05/02 13:03:38;;;;;;;4.97;3.92;;;15.20;42.10;;;;;;5057199;28;20071;-82